PWSweather.com
Personal Weather Stations
Station Observations
DAVIS2016
WorthingGB

WorthingGB

Lat: 50.8130266, Lon: -0.3832443000000012

Elevation: 34.8

Station Type: davis vantage vue 6250

Latest ConditionsUpdated 5:15:00 AM GMT Thursday, Jun 27, 2019
Currently Today's Max Today's Min Today's Average
Temperature 59.1°F15.1°C 59.8°F15.4°C 58.1°F14.5°C 58.8°F14.9°C
Dew Point 54.6°F12.6°C 55.4°F13.0°C 53.8°F12.1°C 54.6°F12.6°C
Winds 3.0 mph NE4.8 kmh NE 3.0 mph -4.8 kmh - - 2.2 mph 3.5 kmh
Wind Gusts 17.0 mph27.4 kmh 17.0 mph27.4 kmh - -
Humidity 85% 87% 85% 86%
Pressure 30.33 in1027.1 mb 30.34 in1027.4 mb 30.32 in1026.8 mb -
Hour Temp Dew Point Humidity Winds Wind Gusts Pressure Precip Precip Rate Daily Precip Total
05:15 AM 59.1°F15.1°C 54.6°F12.6°C 85% 3.0 mph NE4.8 kmh NE 17.0 mph27.4 kmh 30.33 in1027.1 mb 0.00 in0.0 mm 0.00 in0.0 mm 0.00 in0.0 mm
05:00 AM 58.7°F14.8°C 54.2°F12.3°C 85% 2.0 mph ENE3.2 kmh ENE 14.0 mph22.5 kmh 30.33 in1027.1 mb 0.00 in0.0 mm 0.00 in0.0 mm 0.00 in0.0 mm
04:45 AM 58.3°F14.6°C 53.8°F12.1°C 85% 3.0 mph NE4.8 kmh NE 13.0 mph20.9 kmh 30.33 in1027.1 mb 0.00 in0.0 mm 0.00 in0.0 mm 0.00 in0.0 mm
04:30 AM 58.1°F14.5°C 53.9°F12.2°C 86% 2.0 mph NE3.2 kmh NE 8.0 mph12.9 kmh 30.33 in1027.1 mb 0.00 in0.0 mm 0.00 in0.0 mm 0.00 in0.0 mm
04:15 AM 58.1°F14.5°C 54.2°F12.3°C 87% 3.0 mph N4.8 kmh N 9.0 mph14.5 kmh 30.32 in1026.8 mb 0.00 in0.0 mm 0.00 in0.0 mm 0.00 in0.0 mm
04:00 AM 58.2°F14.6°C 54.3°F12.4°C 87% 3.0 mph NNE4.8 kmh NNE 11.0 mph17.7 kmh 30.32 in1026.8 mb 0.00 in0.0 mm 0.00 in0.0 mm 0.00 in0.0 mm
03:45 AM 58.2°F14.6°C 54.3°F12.4°C 87% 2.0 mph NNE3.2 kmh NNE 8.0 mph12.9 kmh 30.32 in1026.8 mb 0.00 in0.0 mm 0.00 in0.0 mm 0.00 in0.0 mm
03:30 AM 58.2°F14.6°C 54.3°F12.4°C 87% 2.0 mph NNE3.2 kmh NNE 8.0 mph12.9 kmh 30.33 in1027.1 mb 0.00 in0.0 mm 0.00 in0.0 mm 0.00 in0.0 mm
03:15 AM 58.4°F14.7°C 54.2°F12.3°C 86% 2.0 mph NNE3.2 kmh NNE 9.0 mph14.5 kmh 30.33 in1027.1 mb 0.00 in0.0 mm 0.00 in0.0 mm 0.00 in0.0 mm
03:00 AM 58.5°F14.7°C 54.3°F12.4°C 86% 2.0 mph N3.2 kmh N 7.0 mph11.3 kmh 30.34 in1027.4 mb 0.00 in0.0 mm 0.00 in0.0 mm 0.00 in0.0 mm
02:45 AM 58.6°F14.8°C 54.4°F12.4°C 86% 2.0 mph NE3.2 kmh NE 7.0 mph11.3 kmh 30.34 in1027.4 mb 0.00 in0.0 mm 0.00 in0.0 mm 0.00 in0.0 mm
02:30 AM 58.6°F14.8°C 54.4°F12.4°C 86% 2.0 mph NNE3.2 kmh NNE 7.0 mph11.3 kmh 30.34 in1027.4 mb 0.00 in0.0 mm 0.00 in0.0 mm 0.00 in0.0 mm
02:15 AM 58.7°F14.8°C 54.5°F12.5°C 86% 2.0 mph NE3.2 kmh NE 7.0 mph11.3 kmh 30.34 in1027.4 mb 0.00 in0.0 mm 0.00 in0.0 mm 0.00 in0.0 mm
02:00 AM 58.8°F14.9°C 54.9°F12.7°C 87% 2.0 mph NE3.2 kmh NE 9.0 mph14.5 kmh 30.33 in1027.1 mb 0.00 in0.0 mm 0.00 in0.0 mm 0.00 in0.0 mm
01:45 AM 58.9°F14.9°C 55.0°F12.8°C 87% 2.0 mph NE3.2 kmh NE 8.0 mph12.9 kmh 30.34 in1027.4 mb 0.00 in0.0 mm 0.00 in0.0 mm 0.00 in0.0 mm
01:30 AM 59.0°F15.0°C 55.1°F12.8°C 87% 2.0 mph NE3.2 kmh NE 6.0 mph9.7 kmh 30.34 in1027.4 mb 0.00 in0.0 mm 0.00 in0.0 mm 0.00 in0.0 mm
01:15 AM 59.1°F15.1°C 54.9°F12.7°C 86% 2.0 mph ENE3.2 kmh ENE 8.0 mph12.9 kmh 30.34 in1027.4 mb 0.00 in0.0 mm 0.00 in0.0 mm 0.00 in0.0 mm
01:00 AM 59.3°F15.2°C 55.1°F12.8°C 86% 2.0 mph N3.2 kmh N 7.0 mph11.3 kmh 30.34 in1027.4 mb 0.00 in0.0 mm 0.00 in0.0 mm 0.00 in0.0 mm
12:45 AM 59.4°F15.2°C 55.2°F12.9°C 86% 2.0 mph NNE3.2 kmh NNE 9.0 mph14.5 kmh 30.34 in1027.4 mb 0.00 in0.0 mm 0.00 in0.0 mm 0.00 in0.0 mm
12:30 AM 59.6°F15.3°C 55.4°F13.0°C 86% 2.0 mph NNE3.2 kmh NNE 5.0 mph8.0 kmh 30.34 in1027.4 mb 0.00 in0.0 mm 0.00 in0.0 mm 0.00 in0.0 mm
12:15 AM 59.7°F15.4°C 55.2°F12.9°C 85% 2.0 mph NNE3.2 kmh NNE 10.0 mph16.1 kmh 30.34 in1027.4 mb 0.00 in0.0 mm 0.00 in0.0 mm 0.00 in0.0 mm
12:00 AM 59.8°F15.4°C 55.3°F12.9°C 85% 2.0 mph NE3.2 kmh NE 8.0 mph12.9 kmh 30.34 in1027.4 mb 0.00 in0.0 mm 0.00 in0.0 mm 0.00 in0.0 mm